sensor_id;sensor_type;location;lat;lon;timestamp;temperature;humidity
44277;DHT22;29973;43.742;1.236;2023-04-06T13:02:59;23.50;38.10
44277;DHT22;29973;43.742;1.236;2023-04-06T13:05:25;27.20;35.40
44277;DHT22;29973;43.742;1.236;2023-04-06T13:07:51;24.70;37.90
44277;DHT22;29973;43.742;1.236;2023-04-06T13:10:17;27.30;35.30
44277;DHT22;29973;43.742;1.236;2023-04-06T13:12:42;27.70;36.60
44277;DHT22;29973;43.742;1.236;2023-04-06T13:15:08;27.00;35.00
44277;DHT22;29973;43.742;1.236;2023-04-06T13:17:34;27.60;33.10
44277;DHT22;29973;43.742;1.236;2023-04-06T13:20:00;26.70;31.70
44277;DHT22;29973;43.742;1.236;2023-04-06T13:22:26;26.80;34.10
44277;DHT22;29973;43.742;1.236;2023-04-06T13:24:52;26.80;30.10
44277;DHT22;29973;43.742;1.236;2023-04-06T13:27:17;29.10;31.90
44277;DHT22;29973;43.742;1.236;2023-04-06T13:29:43;28.90;29.10
44277;DHT22;29973;43.742;1.236;2023-04-06T13:32:09;27.40;33.90
44277;DHT22;29973;43.742;1.236;2023-04-06T13:34:35;27.40;32.80
44277;DHT22;29973;43.742;1.236;2023-04-06T13:37:01;27.50;30.00
44277;DHT22;29973;43.742;1.236;2023-04-06T13:39:27;26.70;35.60
44277;DHT22;29973;43.742;1.236;2023-04-06T13:41:55;26.30;31.50
44277;DHT22;29973;43.742;1.236;2023-04-06T13:44:22;26.60;35.00
44277;DHT22;29973;43.742;1.236;2023-04-06T13:46:47;28.30;28.10
44277;DHT22;29973;43.742;1.236;2023-04-06T13:49:13;29.30;29.10
44277;DHT22;29973;43.742;1.236;2023-04-06T13:51:40;28.50;26.00
44277;DHT22;29973;43.742;1.236;2023-04-06T13:54:07;28.60;28.10
44277;DHT22;29973;43.742;1.236;2023-04-06T13:56:33;28.40;28.80
44277;DHT22;29973;43.742;1.236;2023-04-06T13:58:58;26.90;29.70
44277;DHT22;29973;43.742;1.236;2023-04-06T14:01:24;26.60;28.40
44277;DHT22;29973;43.742;1.236;2023-04-06T14:03:52;26.50;29.10
44277;DHT22;29973;43.742;1.236;2023-04-06T14:06:17;26.60;31.00
44277;DHT22;29973;43.742;1.236;2023-04-06T14:08:43;28.20;28.90
44277;DHT22;29973;43.742;1.236;2023-04-06T14:11:12;25.70;28.30
44277;DHT22;29973;43.742;1.236;2023-04-06T14:13:39;23.80;31.60
44277;DHT22;29973;43.742;1.236;2023-04-06T14:16:06;26.20;28.70
44277;DHT22;29973;43.742;1.236;2023-04-06T14:18:32;28.60;30.50
44277;DHT22;29973;43.742;1.236;2023-04-06T14:21:00;28.50;26.40
44277;DHT22;29973;43.742;1.236;2023-04-06T14:23:27;28.50;25.30
44277;DHT22;29973;43.742;1.236;2023-04-06T14:26:08;28.80;28.80
44277;DHT22;29973;43.742;1.236;2023-04-06T14:28:35;28.00;27.30
44277;DHT22;29973;43.742;1.236;2023-04-06T14:31:02;26.70;29.00
44277;DHT22;29973;43.742;1.236;2023-04-06T14:33:30;25.80;26.20
44277;DHT22;29973;43.742;1.236;2023-04-06T14:35:56;25.20;27.10
44277;DHT22;29973;43.742;1.236;2023-04-06T14:38:22;27.50;27.10
44277;DHT22;29973;43.742;1.236;2023-04-06T14:40:48;28.50;26.40
44277;DHT22;29973;43.742;1.236;2023-04-06T14:43:14;29.20;24.30
44277;DHT22;29973;43.742;1.236;2023-04-06T14:45:40;29.40;24.50
44277;DHT22;29973;43.742;1.236;2023-04-06T14:48:06;27.40;26.50
44277;DHT22;29973;43.742;1.236;2023-04-06T14:50:32;27.80;26.00
44277;DHT22;29973;43.742;1.236;2023-04-06T14:52:59;28.60;26.80
44277;DHT22;29973;43.742;1.236;2023-04-06T14:55:26;27.50;23.90
44277;DHT22;29973;43.742;1.236;2023-04-06T14:57:51;27.30;25.30
44277;DHT22;29973;43.742;1.236;2023-04-06T15:00:17;29.30;26.50
44277;DHT22;29973;43.742;1.236;2023-04-06T15:02:43;28.60;25.40
44277;DHT22;29973;43.742;1.236;2023-04-06T15:05:09;26.40;26.00
44277;DHT22;29973;43.742;1.236;2023-04-06T15:07:36;27.80;26.30
44277;DHT22;29973;43.742;1.236;2023-04-06T15:10:03;28.30;22.70
44277;DHT22;29973;43.742;1.236;2023-04-06T15:12:29;27.30;25.20
44277;DHT22;29973;43.742;1.236;2023-04-06T15:14:55;29.00;28.70
44277;DHT22;29973;43.742;1.236;2023-04-06T15:17:21;29.70;26.80
44277;DHT22;29973;43.742;1.236;2023-04-06T15:19:47;26.40;27.70
44277;DHT22;29973;43.742;1.236;2023-04-06T15:22:12;28.60;27.20
44277;DHT22;29973;43.742;1.236;2023-04-06T15:24:38;28.20;25.50
44277;DHT22;29973;43.742;1.236;2023-04-06T15:27:04;26.00;28.00
44277;DHT22;29973;43.742;1.236;2023-04-06T15:29:30;27.40;25.60
44277;DHT22;29973;43.742;1.236;2023-04-06T15:31:56;27.00;25.70
44277;DHT22;29973;43.742;1.236;2023-04-06T15:34:22;25.20;26.20
44277;DHT22;29973;43.742;1.236;2023-04-06T15:36:48;28.90;26.40
44277;DHT22;29973;43.742;1.236;2023-04-06T15:39:13;29.30;25.70
44277;DHT22;29973;43.742;1.236;2023-04-06T15:41:40;30.70;26.50
44277;DHT22;29973;43.742;1.236;2023-04-06T15:44:05;28.90;25.70
44277;DHT22;29973;43.742;1.236;2023-04-06T15:46:31;26.40;26.90
44277;DHT22;29973;43.742;1.236;2023-04-06T15:48:57;25.50;25.20
44277;DHT22;29973;43.742;1.236;2023-04-06T15:51:23;28.00;27.20
44277;DHT22;29973;43.742;1.236;2023-04-06T15:53:48;28.20;25.70
44277;DHT22;29973;43.742;1.236;2023-04-06T15:56:14;29.40;26.30
44277;DHT22;29973;43.742;1.236;2023-04-06T15:58:41;29.00;24.20
44277;DHT22;29973;43.742;1.236;2023-04-06T16:01:14;27.40;23.10
44277;DHT22;29973;43.742;1.236;2023-04-06T16:03:40;27.30;23.60
44277;DHT22;29973;43.742;1.236;2023-04-06T16:06:06;25.20;25.70
44277;DHT22;29973;43.742;1.236;2023-04-06T16:08:32;26.30;27.00
44277;DHT22;29973;43.742;1.236;2023-04-06T16:10:58;27.80;25.40
44277;DHT22;29973;43.742;1.236;2023-04-06T16:13:23;28.60;25.30
44277;DHT22;29973;43.742;1.236;2023-04-06T16:15:50;28.10;24.20
44277;DHT22;29973;43.742;1.236;2023-04-06T16:18:16;27.70;24.80
44277;DHT22;29973;43.742;1.236;2023-04-06T16:20:42;24.70;27.00
44277;DHT22;29973;43.742;1.236;2023-04-06T16:23:09;25.70;26.10
44277;DHT22;29973;43.742;1.236;2023-04-06T16:25:35;24.90;27.10
44277;DHT22;29973;43.742;1.236;2023-04-06T16:28:06;25.30;25.70
44277;DHT22;29973;43.742;1.236;2023-04-06T16:30:36;26.00;25.40
44277;DHT22;29973;43.742;1.236;2023-04-06T16:33:02;23.90;28.60
44277;DHT22;29973;43.742;1.236;2023-04-06T16:35:28;25.60;25.80
44277;DHT22;29973;43.742;1.236;2023-04-06T16:37:54;25.90;25.70
44277;DHT22;29973;43.742;1.236;2023-04-06T16:40:19;26.60;27.40
44277;DHT22;29973;43.742;1.236;2023-04-06T16:42:45;25.10;26.70
44277;DHT22;29973;43.742;1.236;2023-04-06T16:45:11;26.40;26.70
44277;DHT22;29973;43.742;1.236;2023-04-06T16:47:38;26.80;26.30
44277;DHT22;29973;43.742;1.236;2023-04-06T16:50:05;27.10;25.20
44277;DHT22;29973;43.742;1.236;2023-04-06T16:52:31;27.20;26.40
44277;DHT22;29973;43.742;1.236;2023-04-06T16:54:57;25.70;26.50
44277;DHT22;29973;43.742;1.236;2023-04-06T16:57:23;25.00;26.20
44277;DHT22;29973;43.742;1.236;2023-04-06T16:59:56;25.00;26.50
44277;DHT22;29973;43.742;1.236;2023-04-06T17:02:23;25.00;26.00
44277;DHT22;29973;43.742;1.236;2023-04-06T17:04:49;24.10;28.00
44277;DHT22;29973;43.742;1.236;2023-04-06T17:07:15;23.10;28.50
44277;DHT22;29973;43.742;1.236;2023-04-06T17:09:41;24.20;27.30
44277;DHT22;29973;43.742;1.236;2023-04-06T17:12:07;25.80;25.50
44277;DHT22;29973;43.742;1.236;2023-04-06T17:14:33;26.10;26.10
44277;DHT22;29973;43.742;1.236;2023-04-06T17:16:59;25.10;27.80
44277;DHT22;29973;43.742;1.236;2023-04-06T17:19:25;25.20;28.00
44277;DHT22;29973;43.742;1.236;2023-04-06T17:21:51;26.10;27.60
44277;DHT22;29973;43.742;1.236;2023-04-06T17:24:17;25.80;26.80
44277;DHT22;29973;43.742;1.236;2023-04-06T17:26:43;24.90;27.00
44277;DHT22;29973;43.742;1.236;2023-04-06T17:29:09;22.40;29.30
44277;DHT22;29973;43.742;1.236;2023-04-06T17:31:35;20.80;32.90
44277;DHT22;29973;43.742;1.236;2023-04-06T17:34:00;20.20;34.20
44277;DHT22;29973;43.742;1.236;2023-04-06T17:36:26;19.90;35.20
44277;DHT22;29973;43.742;1.236;2023-04-06T17:38:54;18.70;41.00
44277;DHT22;29973;43.742;1.236;2023-04-06T17:41:20;17.40;45.80
44277;DHT22;29973;43.742;1.236;2023-04-06T17:43:46;16.70;45.10
44277;DHT22;29973;43.742;1.236;2023-04-06T17:46:12;16.60;44.10
44277;DHT22;29973;43.742;1.236;2023-04-06T17:48:38;16.30;46.70
44277;DHT22;29973;43.742;1.236;2023-04-06T17:51:04;16.20;44.10
44277;DHT22;29973;43.742;1.236;2023-04-06T17:53:29;16.00;46.60
44277;DHT22;29973;43.742;1.236;2023-04-06T17:55:58;15.50;50.10
44277;DHT22;29973;43.742;1.236;2023-04-06T17:58:26;15.40;49.60
44277;DHT22;29973;43.742;1.236;2023-04-06T18:00:51;14.80;51.00
44277;DHT22;29973;43.742;1.236;2023-04-06T18:03:17;14.50;56.80
44277;DHT22;29973;43.742;1.236;2023-04-06T18:05:43;14.20;52.20
44277;DHT22;29973;43.742;1.236;2023-04-06T18:08:09;14.00;57.00
44277;DHT22;29973;43.742;1.236;2023-04-06T18:10:36;13.80;56.20
44277;DHT22;29973;43.742;1.236;2023-04-06T18:13:03;13.60;58.80
44277;DHT22;29973;43.742;1.236;2023-04-06T18:15:29;13.20;61.20
44277;DHT22;29973;43.742;1.236;2023-04-06T18:17:55;13.20;58.10
44277;DHT22;29973;43.742;1.236;2023-04-06T18:20:21;12.90;60.30
44277;DHT22;29973;43.742;1.236;2023-04-06T18:22:47;12.90;59.00
44277;DHT22;29973;43.742;1.236;2023-04-06T18:25:12;12.70;59.30
44277;DHT22;29973;43.742;1.236;2023-04-06T18:27:38;12.50;62.30
44277;DHT22;29973;43.742;1.236;2023-04-06T18:30:04;12.30;63.00
44277;DHT22;29973;43.742;1.236;2023-04-06T18:32:30;12.30;61.90
44277;DHT22;29973;43.742;1.236;2023-04-06T18:34:56;12.20;63.00
44277;DHT22;29973;43.742;1.236;2023-04-06T18:37:23;11.90;64.90
44277;DHT22;29973;43.742;1.236;2023-04-06T18:39:49;11.70;66.30
44277;DHT22;29973;43.742;1.236;2023-04-06T18:42:16;11.70;66.00
44277;DHT22;29973;43.742;1.236;2023-04-06T18:44:44;11.60;66.00
44277;DHT22;29973;43.742;1.236;2023-04-06T18:47:09;11.30;67.00
44277;DHT22;29973;43.742;1.236;2023-04-06T18:49:35;11.10;72.00
44277;DHT22;29973;43.742;1.236;2023-04-06T18:52:03;10.90;71.20
44277;DHT22;29973;43.742;1.236;2023-04-06T18:54:29;10.90;76.60
44277;DHT22;29973;43.742;1.236;2023-04-06T18:56:54;10.50;75.70
44277;DHT22;29973;43.742;1.236;2023-04-06T18:59:21;10.50;76.30
44277;DHT22;29973;43.742;1.236;2023-04-06T19:01:47;10.40;78.40
44277;DHT22;29973;43.742;1.236;2023-04-06T19:04:15;10.20;80.70
44277;DHT22;29973;43.742;1.236;2023-04-06T19:06:41;10.30;82.00
44277;DHT22;29973;43.742;1.236;2023-04-06T19:09:06;10.30;82.00
44277;DHT22;29973;43.742;1.236;2023-04-06T19:11:32;10.20;82.90
44277;DHT22;29973;43.742;1.236;2023-04-06T19:13:58;10.10;83.10
44277;DHT22;29973;43.742;1.236;2023-04-06T19:16:24;9.90;86.50
44277;DHT22;29973;43.742;1.236;2023-04-06T19:18:51;9.90;87.40
44277;DHT22;29973;43.742;1.236;2023-04-06T19:21:22;9.90;87.30
44277;DHT22;29973;43.742;1.236;2023-04-06T19:23:50;9.80;87.10
44277;DHT22;29973;43.742;1.236;2023-04-06T19:26:17;9.70;88.60
44277;DHT22;29973;43.742;1.236;2023-04-06T19:28:43;9.70;88.30
44277;DHT22;29973;43.742;1.236;2023-04-06T19:31:11;9.60;89.60
44277;DHT22;29973;43.742;1.236;2023-04-06T19:33:37;9.60;90.00
44277;DHT22;29973;43.742;1.236;2023-04-06T19:36:04;9.70;90.10
44277;DHT22;29973;43.742;1.236;2023-04-06T19:38:31;9.50;90.20
44277;DHT22;29973;43.742;1.236;2023-04-06T19:40:58;9.40;91.20
44277;DHT22;29973;43.742;1.236;2023-04-06T19:43:24;9.20;92.00
44277;DHT22;29973;43.742;1.236;2023-04-06T19:45:50;9.20;92.20
44277;DHT22;29973;43.742;1.236;2023-04-06T19:48:16;9.10;92.00
44277;DHT22;29973;43.742;1.236;2023-04-06T19:50:42;9.00;92.40
44277;DHT22;29973;43.742;1.236;2023-04-06T19:53:08;9.00;92.80
44277;DHT22;29973;43.742;1.236;2023-04-06T19:55:34;8.70;93.80
44277;DHT22;29973;43.742;1.236;2023-04-06T19:58:01;8.60;94.10
44277;DHT22;29973;43.742;1.236;2023-04-06T20:00:27;8.80;94.40
44277;DHT22;29973;43.742;1.236;2023-04-06T20:02:53;8.50;95.30
44277;DHT22;29973;43.742;1.236;2023-04-06T20:05:19;8.20;96.30
44277;DHT22;29973;43.742;1.236;2023-04-06T20:07:45;8.20;97.40
44277;DHT22;29973;43.742;1.236;2023-04-06T20:10:12;8.20;97.40
44277;DHT22;29973;43.742;1.236;2023-04-06T20:12:40;8.00;97.70
44277;DHT22;29973;43.742;1.236;2023-04-06T20:15:06;8.10;98.00
44277;DHT22;29973;43.742;1.236;2023-04-06T20:17:32;8.10;98.10
44277;DHT22;29973;43.742;1.236;2023-04-06T20:19:57;8.10;98.60
44277;DHT22;29973;43.742;1.236;2023-04-06T20:22:23;8.10;99.60
44277;DHT22;29973;43.742;1.236;2023-04-06T20:24:49;8.10;99.80
44277;DHT22;29973;43.742;1.236;2023-04-06T20:27:15;7.80;99.90
44277;DHT22;29973;43.742;1.236;2023-04-06T20:29:41;7.50;99.90
44277;DHT22;29973;43.742;1.236;2023-04-06T20:32:09;7.50;99.90
44277;DHT22;29973;43.742;1.236;2023-04-06T20:34:34;7.40;99.90
44277;DHT22;29973;43.742;1.236;2023-04-06T20:37:00;7.50;99.90
44277;DHT22;29973;43.742;1.236;2023-04-06T20:39:26;7.60;99.90
44277;DHT22;29973;43.742;1.236;2023-04-06T20:41:52;7.50;99.90
44277;DHT22;29973;43.742;1.236;2023-04-06T20:44:18;7.50;99.90
44277;DHT22;29973;43.742;1.236;2023-04-06T20:46:46;7.40;99.90
44277;DHT22;29973;43.742;1.236;2023-04-06T20:49:13;7.40;99.90
44277;DHT22;29973;43.742;1.236;2023-04-06T20:51:39;7.30;99.90
44277;DHT22;29973;43.742;1.236;2023-04-06T20:54:07;7.30;99.90
44277;DHT22;29973;43.742;1.236;2023-04-06T20:56:33;7.50;99.90
44277;DHT22;29973;43.742;1.236;2023-04-06T20:58:59;7.40;99.90
44277;DHT22;29973;43.742;1.236;2023-04-06T21:01:26;7.00;99.90
44277;DHT22;29973;43.742;1.236;2023-04-06T21:03:53;7.00;99.90
44277;DHT22;29973;43.742;1.236;2023-04-06T21:06:19;7.10;99.90
44277;DHT22;29973;43.742;1.236;2023-04-06T21:08:45;7.10;99.90
44277;DHT22;29973;43.742;1.236;2023-04-06T21:11:11;6.80;99.90
44277;DHT22;29973;43.742;1.236;2023-04-06T21:13:37;6.90;99.90
44277;DHT22;29973;43.742;1.236;2023-04-06T21:16:03;6.90;99.90
44277;DHT22;29973;43.742;1.236;2023-04-06T21:18:29;6.90;99.90
44277;DHT22;29973;43.742;1.236;2023-04-06T21:20:55;6.90;99.90
44277;DHT22;29973;43.742;1.236;2023-04-06T21:23:21;7.00;99.90
44277;DHT22;29973;43.742;1.236;2023-04-06T21:25:47;6.80;99.90
44277;DHT22;29973;43.742;1.236;2023-04-06T21:28:17;6.70;99.90
44277;DHT22;29973;43.742;1.236;2023-04-06T21:30:42;6.80;99.90
44277;DHT22;29973;43.742;1.236;2023-04-06T21:33:08;6.50;99.90
44277;DHT22;29973;43.742;1.236;2023-04-06T21:35:38;6.60;99.90
44277;DHT22;29973;43.742;1.236;2023-04-06T21:38:04;6.60;99.90
44277;DHT22;29973;43.742;1.236;2023-04-06T21:40:30;6.60;99.90
44277;DHT22;29973;43.742;1.236;2023-04-06T21:42:55;6.70;99.90
44277;DHT22;29973;43.742;1.236;2023-04-06T21:45:21;6.60;99.90
44277;DHT22;29973;43.742;1.236;2023-04-06T21:47:47;6.40;99.90
44277;DHT22;29973;43.742;1.236;2023-04-06T21:50:12;6.40;99.90
44277;DHT22;29973;43.742;1.236;2023-04-06T21:52:38;6.30;99.90
44277;DHT22;29973;43.742;1.236;2023-04-06T21:55:04;6.30;99.90
44277;DHT22;29973;43.742;1.236;2023-04-06T21:57:30;6.20;99.90
44277;DHT22;29973;43.742;1.236;2023-04-06T21:59:55;6.20;99.90
44277;DHT22;29973;43.742;1.236;2023-04-06T22:02:21;6.10;99.90
44277;DHT22;29973;43.742;1.236;2023-04-06T22:04:47;6.10;99.90
44277;DHT22;29973;43.742;1.236;2023-04-06T22:07:13;6.00;99.90
44277;DHT22;29973;43.742;1.236;2023-04-06T22:09:39;5.90;99.90
44277;DHT22;29973;43.742;1.236;2023-04-06T22:12:05;6.10;99.90
44277;DHT22;29973;43.742;1.236;2023-04-06T22:14:31;6.00;99.90
44277;DHT22;29973;43.742;1.236;2023-04-06T22:16:56;6.00;99.90
44277;DHT22;29973;43.742;1.236;2023-04-06T22:19:22;6.10;99.90
44277;DHT22;29973;43.742;1.236;2023-04-06T22:21:48;5.90;99.90
44277;DHT22;29973;43.742;1.236;2023-04-06T22:24:13;5.80;99.90
44277;DHT22;29973;43.742;1.236;2023-04-06T22:26:39;5.60;99.90
44277;DHT22;29973;43.742;1.236;2023-04-06T22:29:05;5.60;99.90
44277;DHT22;29973;43.742;1.236;2023-04-06T22:31:30;5.60;99.90
44277;DHT22;29973;43.742;1.236;2023-04-06T22:33:56;5.60;99.90
44277;DHT22;29973;43.742;1.236;2023-04-06T22:36:22;5.50;99.90
44277;DHT22;29973;43.742;1.236;2023-04-06T22:38:48;5.60;99.90
44277;DHT22;29973;43.742;1.236;2023-04-06T22:41:15;5.60;99.90
44277;DHT22;29973;43.742;1.236;2023-04-06T22:43:41;5.70;99.90
44277;DHT22;29973;43.742;1.236;2023-04-06T22:46:06;5.60;99.90
44277;DHT22;29973;43.742;1.236;2023-04-06T22:48:32;5.20;99.90
44277;DHT22;29973;43.742;1.236;2023-04-06T22:50:58;4.90;99.90
44277;DHT22;29973;43.742;1.236;2023-04-06T22:53:23;4.80;99.90
44277;DHT22;29973;43.742;1.236;2023-04-06T22:55:50;4.70;99.90
44277;DHT22;29973;43.742;1.236;2023-04-06T22:58:15;4.80;99.90
44277;DHT22;29973;43.742;1.236;2023-04-06T23:00:41;4.90;99.90
44277;DHT22;29973;43.742;1.236;2023-04-06T23:03:07;5.10;99.90
44277;DHT22;29973;43.742;1.236;2023-04-06T23:05:32;5.20;99.90
44277;DHT22;29973;43.742;1.236;2023-04-06T23:07:58;5.20;99.90
44277;DHT22;29973;43.742;1.236;2023-04-06T23:10:24;5.20;99.90
44277;DHT22;29973;43.742;1.236;2023-04-06T23:12:50;5.10;99.90
44277;DHT22;29973;43.742;1.236;2023-04-06T23:15:15;5.10;99.90
44277;DHT22;29973;43.742;1.236;2023-04-06T23:17:41;5.10;99.90
44277;DHT22;29973;43.742;1.236;2023-04-06T23:20:07;5.00;99.90
44277;DHT22;29973;43.742;1.236;2023-04-06T23:22:33;4.90;99.90
44277;DHT22;29973;43.742;1.236;2023-04-06T23:24:58;5.00;99.90
44277;DHT22;29973;43.742;1.236;2023-04-06T23:27:24;4.80;99.90
44277;DHT22;29973;43.742;1.236;2023-04-06T23:29:50;4.70;99.90
44277;DHT22;29973;43.742;1.236;2023-04-06T23:32:16;4.60;99.90
44277;DHT22;29973;43.742;1.236;2023-04-06T23:34:41;4.50;99.90
44277;DHT22;29973;43.742;1.236;2023-04-06T23:37:07;4.60;99.90
44277;DHT22;29973;43.742;1.236;2023-04-06T23:39:34;4.50;99.90
44277;DHT22;29973;43.742;1.236;2023-04-06T23:42:00;4.60;99.90
44277;DHT22;29973;43.742;1.236;2023-04-06T23:44:29;4.60;99.90
44277;DHT22;29973;43.742;1.236;2023-04-06T23:46:57;4.40;99.90
44277;DHT22;29973;43.742;1.236;2023-04-06T23:49:23;4.40;99.90
44277;DHT22;29973;43.742;1.236;2023-04-06T23:51:48;4.50;99.90
44277;DHT22;29973;43.742;1.236;2023-04-06T23:54:14;4.50;99.90
44277;DHT22;29973;43.742;1.236;2023-04-06T23:56:40;4.40;99.90
44277;DHT22;29973;43.742;1.236;2023-04-06T23:59:06;4.30;99.90
